Map

Track Data

SID SEASON NUMBER BASIN SUBBASIN NAME ISO_TIME NATURE LAT LON WMO_WIND WMO_PRES WMO_AGENCY TRACK_TYPE DIST2LAND LANDFALL IFLAG USA_AGENCY USA_ATCF_ID USA_LAT USA_LON USA_RECORD USA_STATUS USA_WIND USA_PRES USA_SSHS USA_R34_NE USA_R34_SE USA_R34_SW USA_R34_NW USA_R50_NE USA_R50_SE USA_R50_SW USA_R50_NW USA_R64_NE USA_R64_SE USA_R64_SW USA_R64_NW USA_POCI USA_ROCI USA_RMW USA_EYE TOKYO_LAT TOKYO_LON TOKYO_GRADE TOKYO_WIND TOKYO_PRES TOKYO_R50_DIR TOKYO_R50_LONG TOKYO_R50_SHORT TOKYO_R30_DIR TOKYO_R30_LONG TOKYO_R30_SHORT TOKYO_LAND CMA_LAT CMA_LON CMA_CAT CMA_WIND CMA_PRES HKO_LAT HKO_LON HKO_CAT HKO_WIND HKO_PRES NEWDELHI_LAT NEWDELHI_LON NEWDELHI_GRADE NEWDELHI_WIND NEWDELHI_PRES NEWDELHI_CI NEWDELHI_DP NEWDELHI_POCI REUNION_LAT REUNION_LON REUNION_TYPE REUNION_WIND REUNION_PRES REUNION_TNUM REUNION_CI REUNION_RMW REUNION_R34_NE REUNION_R34_SE REUNION_R34_SW REUNION_R34_NW REUNION_R50_NE REUNION_R50_SE REUNION_R50_SW REUNION_R50_NW REUNION_R64_NE REUNION_R64_SE REUNION_R64_SW REUNION_R64_NW BOM_LAT BOM_LON BOM_TYPE BOM_WIND BOM_PRES BOM_TNUM BOM_CI BOM_RMW BOM_R34_NE BOM_R34_SE BOM_R34_SW BOM_R34_NW BOM_R50_NE BOM_R50_SE BOM_R50_SW BOM_R50_NW BOM_R64_NE BOM_R64_SE BOM_R64_SW BOM_R64_NW BOM_ROCI BOM_POCI BOM_EYE BOM_POS_METHOD BOM_PRES_METHOD NADI_LAT NADI_LON NADI_CAT NADI_WIND NADI_PRES WELLINGTON_LAT WELLINGTON_LON WELLINGTON_WIND WELLINGTON_PRES DS824_LAT DS824_LON DS824_STAGE DS824_WIND DS824_PRES TD9636_LAT TD9636_LON TD9636_STAGE TD9636_WIND TD9636_PRES TD9635_LAT TD9635_LON TD9635_WIND TD9635_PRES TD9635_ROCI NEUMANN_LAT NEUMANN_LON NEUMANN_CLASS NEUMANN_WIND NEUMANN_PRES MLC_LAT MLC_LON MLC_CLASS MLC_WIND MLC_PRES USA_GUST BOM_GUST BOM_GUST_PER REUNION_GUST REUNION_GUST_PER USA_SEAHGT USA_SEARAD_NE USA_SEARAD_SE USA_SEARAD_SW USA_SEARAD_NW STORM_SPEED STORM_DIR
1892300N11086 1892 58 NI BB NOT_NAMED 1892-10-26 00:00:00 TS 11.0000 86.4000 main 620 611 _________O____ -1 11.0000 86.4000 TC 30 2 302
1892300N11086 1892 58 NI BB NOT_NAMED 1892-10-26 03:00:00 TS 11.0667 86.2934 main 616 607 _________PO___ -1 11.1000 86.2400 TC 30 11.0000 86.4000 1 3 305
1892300N11086 1892 58 NI BB NOT_NAMED 1892-10-26 06:00:00 TS 11.1613 86.1644 main 612 603 _________OP___ -1 11.2000 86.1000 TC 30 11.1032 86.2611 1 3 309
1892300N11086 1892 58 NI BB NOT_NAMED 1892-10-26 09:00:00 TS 11.2593 86.0504 main 609 599 _________PP___ -1 11.3000 85.9925 TC 30 11.2051 86.1277 1 3 313
1892300N11086 1892 58 NI BB NOT_NAMED 1892-10-26 12:00:00 TS 11.3522 85.9527 main 605 596 _________OP___ -1 11.4000 85.9000 TC 30 11.3044 86.0054 1 3 314
1892300N11086 1892 58 NI BB NOT_NAMED 1892-10-26 15:00:00 TS 11.4500 85.8500 main 602 587 _________PO___ -1 11.5000 85.8000 TC 30 11.4000 85.9000 1 3 315
1892300N11086 1892 58 NI BB NOT_NAMED 1892-10-26 18:00:00 TS 11.5459 85.7565 main 593 590 _________OP___ -1 11.6000 85.7000 TC 30 11.4918 85.8130 1 3 317
1892300N11086 1892 58 NI BB NOT_NAMED 1892-10-26 21:00:00 TS 11.6387 85.6724 main 590 587 _________PP___ -1 11.6925 85.6150 TC 30 11.5849 85.7298 1 3 317
1892300N11086 1892 58 NI BB NOT_NAMED 1892-10-27 00:00:00 TS 11.7428 85.5659 main 587 569 _________OP___ -1 11.8000 85.5000 TC 30 11.6855 85.6317 1 3 312
1892300N11086 1892 58 NI BB NOT_NAMED 1892-10-27 03:00:00 TS 11.8712 85.4112 main 569 546 _________PO___ -1 11.9425 85.3225 TC 30 11.8000 85.5000 1 5 308
1892300N11086 1892 58 NI BB NOT_NAMED 1892-10-27 06:00:00 TS 12.0199 85.2015 main 546 522 _________OP___ -1 12.1000 85.1000 TC 30 11.9398 85.3029 1 5 304
1892300N11086 1892 58 NI BB NOT_NAMED 1892-10-27 09:00:00 TS 12.1713 84.9576 main 522 489 _________PP___ -1 12.2500 84.8425 TC 30 12.0926 85.0726 1 6 303
1892300N11086 1892 58 NI BB NOT_NAMED 1892-10-27 12:00:00 TS 12.3246 84.7155 main 489 464 _________OP___ -1 12.4000 84.6000 TC 30 12.2492 84.8310 1 5 306
1892300N11086 1892 58 NI BB NOT_NAMED 1892-10-27 15:00:00 TS 12.4787 84.5212 main 464 451 _________PO___ -1 12.5574 84.4425 TC 30 12.4000 84.6000 1 4 311
1892300N11086 1892 58 NI BB NOT_NAMED 1892-10-27 18:00:00 TS 12.6077 84.3835 main 451 438 _________OP___ -1 12.7000 84.3000 TC 30 12.5154 84.4670 1 4 310
1892300N11086 1892 58 NI BB NOT_NAMED 1892-10-27 21:00:00 TS 12.7058 84.2457 main 428 404 _________PP___ -1 12.7848 84.1523 TC 30 12.6267 84.3392 1 4 302
1892300N11086 1892 58 NI BB NOT_NAMED 1892-10-28 00:00:00 TS 12.8248 84.0334 main 404 369 _________OP___ -1 12.9000 83.9000 TC 30 12.7496 84.1668 1 6 299
1892300N11086 1892 58 NI BB NOT_NAMED 1892-10-28 03:00:00 TS 13.0175 83.6763 main 369 314 _________PO___ -1 13.1351 83.4526 TC 30 12.9000 83.9000 1 9 297
1892300N11086 1892 58 NI BB NOT_NAMED 1892-10-28 06:00:00 TS 13.2484 83.1859 main 314 259 _________OP___ -1 13.4000 82.9000 TC 30 13.0967 83.4718 1 11 294
1892300N11086 1892 58 NI BB NOT_NAMED 1892-10-28 09:00:00 TS 13.4641 82.6489 main 248 194 _________PP___ -1 13.6075 82.3499 TC 30 13.3207 82.9478 1 12 292
1892300N11086 1892 58 NI BB NOT_NAMED 1892-10-28 12:00:00 TS 13.6796 82.0874 main 194 140 _________OP___ -1 13.8000 81.8000 TC 30 13.5592 82.3748 1 12 292
1892300N11086 1892 58 NI BB NOT_NAMED 1892-10-28 15:00:00 TS 13.8962 81.5462 main 130 92 _________PO___ -1 13.9923 81.2924 TC 30 13.8000 81.8000 1 11 293
1892300N11086 1892 58 NI BB NOT_NAMED 1892-10-28 18:00:00 TS 14.1125 81.0322 main 82 43 _________OP___ -1 14.2000 80.8000 TC 30 14.0250 81.2643 1 11 294
1892300N11086 1892 58 NI BB NOT_NAMED 1892-10-28 21:00:00 TS 14.3500 80.5088 main 39 0 _________PP___ -1 14.4500 80.2776 TC 30 14.2501 80.7400 1 11 296
1892300N11086 1892 58 NI BB NOT_NAMED 1892-10-29 00:00:00 TS 14.5875 80.0228 main 0 0 _________OP___ -1 14.7000 79.8000 TC 30 14.4751 80.2456 1 10 297
1892300N11086 1892 58 NI BB NOT_NAMED 1892-10-29 03:00:00 TS 14.7999 79.6099 main 0 0 _________PO___ -1 14.8999 79.4198 TC 30 14.7000 79.8000 1 9 299
1892300N11086 1892 58 NI BB NOT_NAMED 1892-10-29 06:00:00 TS 15.0021 79.2540 main 0 0 _________OP___ -1 15.1000 79.1000 TC 30 14.9043 79.4080 1 8 303
1892300N11086 1892 58 NI BB NOT_NAMED 1892-10-29 09:00:00 TS 15.2235 78.9296 main 0 0 _________PP___ -1 15.3349 78.7924 TC 30 15.1120 79.0669 1 8 308
1892300N11086 1892 58 NI BB NOT_NAMED 1892-10-29 12:00:00 TS 15.4694 78.6337 main 0 0 _________OP___ -1 15.6000 78.5000 TC 30 15.3388 78.7674 1 8 312
1892300N11086 1892 58 NI BB NOT_NAMED 1892-10-29 15:00:00 TS 15.7388 78.3388 main 0 0 _________PO___ -1 15.8775 78.1775 TC 30 15.6000 78.5000 1 8 316
1892300N11086 1892 58 NI BB NOT_NAMED 1892-10-29 18:00:00 TS 16.0611 78.0450 main 0 0 _________OP___ -1 16.2000 77.9000 TC 30 15.9222 78.1899 1 9 324
1892300N11086 1892 58 NI AS NOT_NAMED 1892-10-29 21:00:00 TS 16.4387 77.8067 main 0 0 _________PP___ -1 16.6000 77.6976 TC 30 16.2775 77.9159 1 9 334
1892300N11086 1892 58 NI AS NOT_NAMED 1892-10-30 00:00:00 TS 16.8220 77.6544 main 0 0 _________OP___ -1 17.0000 77.6000 TC 30 16.6440 77.7088 1 8 345
1892300N11086 1892 58 NI AS NOT_NAMED 1892-10-30 03:00:00 TS 17.1575 77.5987 main 0 0 _________PO___ -1 17.3149 77.5975 TC 30 17.0000 77.6000 1 6 358
1892300N11086 1892 58 NI AS NOT_NAMED 1892-10-30 06:00:00 TS 17.4631 77.6457 main 0 0 _________OP___ -1 17.6000 77.7000 TC 30 17.3262 77.5914 1 6 15
1892300N11086 1892 58 NI AS NOT_NAMED 1892-10-30 09:00:00 TS 17.7723 77.7735 main 0 0 _________PP___ -1 17.9075 77.8625 TC 30 17.6371 77.6845 1 7 28
1892300N11086 1892 58 NI AS NOT_NAMED 1892-10-30 12:00:00 TS 18.0647 77.9802 main 0 0 _________OP___ -1 18.2000 78.1000 TC 30 17.9294 77.8604 1 7 38
1892300N11086 1892 58 NI BB NOT_NAMED 1892-10-30 15:00:00 TS 18.3325 78.2388 main 0 0 _________PO___ -1 18.4650 78.3775 TC 30 18.2000 78.1000 1 7 46
1892300N11086 1892 58 NI BB NOT_NAMED 1892-10-30 18:00:00 TS 18.5556 78.5203 main 0 0 _________OP___ -1 18.7000 78.7000 TC 30 18.4473 78.3855 1 7 53
1892300N11086 1892 58 NI BB NOT_NAMED 1892-10-30 21:00:00 TS 18.7685 78.8407 main 0 0 _________PP___ -1 18.9076 79.0449 TC 30 18.6757 78.7046 1 7 56
1892300N11086 1892 58 NI BB NOT_NAMED 1892-10-31 00:00:00 TS 18.9609 79.1643 main 0 0 _________OP___ -1 19.1000 79.4000 TC 30 18.8913 79.0464 1 6 58
1892300N11086 1892 58 NI BB NOT_NAMED 1892-10-31 03:00:00 NR 19.1000 79.4000 main 0 __________O___ -1 TC 19.1000 79.4000 1 5 58

About IBTrACS Database

This database is a web-friendly format of International Best Track Archive for Climate Stewardship (IBTrACS), a global best track data archive curated by NOAA dating back to 1842.

Updated: 2021-11-26